sensor_id;sensor_type;location;lat;lon;timestamp;pressure;altitude;pressure_sealevel;temperature;humidity
73952;BME280;62304;47.662;18.324;2023-11-21T00:00:04;99849.91;;;7.31;94.69
73952;BME280;62304;47.662;18.324;2023-11-21T00:03:13;99846.25;;;7.27;94.33
73952;BME280;62304;47.662;18.324;2023-11-21T00:06:18;99842.91;;;7.18;95.23
73952;BME280;62304;47.662;18.324;2023-11-21T00:09:21;99848.44;;;7.03;95.46
73952;BME280;62304;47.662;18.324;2023-11-21T00:12:24;99840.94;;;7.19;95.09
73952;BME280;62304;47.662;18.324;2023-11-21T00:15:27;99854.31;;;7.17;95.95
73952;BME280;62304;47.662;18.324;2023-11-21T00:18:30;99850.31;;;7.14;96.02
73952;BME280;62304;47.662;18.324;2023-11-21T00:21:33;99852.97;;;7.11;96.19
73952;BME280;62304;47.662;18.324;2023-11-21T00:24:36;99857.88;;;7.02;96.46
73952;BME280;62304;47.662;18.324;2023-11-21T00:27:39;99853.53;;;7.01;96.46
73952;BME280;62304;47.662;18.324;2023-11-21T00:30:42;99855.87;;;6.68;97.54
73952;BME280;62304;47.662;18.324;2023-11-21T00:33:45;99860.84;;;6.62;98.03
73952;BME280;62304;47.662;18.324;2023-11-21T00:36:48;99856.31;;;6.54;98.42
73952;BME280;62304;47.662;18.324;2023-11-21T00:39:51;99852.41;;;6.55;98.36
73952;BME280;62304;47.662;18.324;2023-11-21T00:42:54;99861.56;;;6.59;97.99
73952;BME280;62304;47.662;18.324;2023-11-21T00:45:59;99865.38;;;6.55;97.81
73952;BME280;62304;47.662;18.324;2023-11-21T00:49:03;99866.00;;;6.48;98.17
73952;BME280;62304;47.662;18.324;2023-11-21T00:52:08;99864.03;;;6.33;98.98
73952;BME280;62304;47.662;18.324;2023-11-21T00:55:12;99868.03;;;6.36;98.86
73952;BME280;62304;47.662;18.324;2023-11-21T00:58:15;99838.94;;;6.07;99.45
73952;BME280;62304;47.662;18.324;2023-11-21T01:01:19;99868.53;;;6.10;99.79
73952;BME280;62304;47.662;18.324;2023-11-21T01:04:22;99856.25;;;6.08;99.62
73952;BME280;62304;47.662;18.324;2023-11-21T01:07:25;99853.34;;;6.16;99.41
73952;BME280;62304;47.662;18.324;2023-11-21T01:10:30;99852.84;;;5.99;99.42
73952;BME280;62304;47.662;18.324;2023-11-21T01:13:33;99854.31;;;6.08;99.23
73952;BME280;62304;47.662;18.324;2023-11-21T01:16:35;99849.00;;;5.88;100.00
73952;BME280;62304;47.662;18.324;2023-11-21T01:19:39;99844.75;;;5.90;100.00
73952;BME280;62304;47.662;18.324;2023-11-21T01:22:42;99843.16;;;5.62;100.00
73952;BME280;62304;47.662;18.324;2023-11-21T01:25:46;99835.69;;;5.62;100.00
73952;BME280;62304;47.662;18.324;2023-11-21T01:28:48;99824.53;;;5.71;100.00
73952;BME280;62304;47.662;18.324;2023-11-21T01:31:52;99827.63;;;5.69;100.00
73952;BME280;62304;47.662;18.324;2023-11-21T01:34:55;99823.06;;;5.61;100.00
73952;BME280;62304;47.662;18.324;2023-11-21T01:37:58;99835.72;;;5.78;100.00
73952;BME280;62304;47.662;18.324;2023-11-21T01:41:01;99828.88;;;5.72;100.00
73952;BME280;62304;47.662;18.324;2023-11-21T01:44:04;99844.12;;;5.69;100.00
73952;BME280;62304;47.662;18.324;2023-11-21T01:47:10;99837.06;;;5.56;100.00
73952;BME280;62304;47.662;18.324;2023-11-21T01:50:15;99832.41;;;5.45;100.00
73952;BME280;62304;47.662;18.324;2023-11-21T01:53:19;99838.28;;;5.43;100.00
73952;BME280;62304;47.662;18.324;2023-11-21T01:56:24;99840.28;;;5.58;100.00
73952;BME280;62304;47.662;18.324;2023-11-21T01:59:36;99833.56;;;5.44;100.00
73952;BME280;62304;47.662;18.324;2023-11-21T02:02:39;99833.03;;;5.38;100.00
73952;BME280;62304;47.662;18.324;2023-11-21T02:05:43;99825.28;;;5.16;100.00
73952;BME280;62304;47.662;18.324;2023-11-21T02:08:46;99820.69;;;5.20;100.00
73952;BME280;62304;47.662;18.324;2023-11-21T02:11:49;99813.69;;;5.23;100.00
73952;BME280;62304;47.662;18.324;2023-11-21T02:14:52;99811.75;;;5.23;100.00
73952;BME280;62304;47.662;18.324;2023-11-21T02:17:55;99799.25;;;5.26;100.00
73952;BME280;62304;47.662;18.324;2023-11-21T02:20:58;99810.03;;;5.19;100.00
73952;BME280;62304;47.662;18.324;2023-11-21T02:24:01;99801.47;;;5.08;100.00
73952;BME280;62304;47.662;18.324;2023-11-21T02:27:04;99797.91;;;5.20;100.00
73952;BME280;62304;47.662;18.324;2023-11-21T02:30:09;99794.72;;;5.18;100.00
73952;BME280;62304;47.662;18.324;2023-11-21T02:33:17;99799.06;;;5.19;100.00
73952;BME280;62304;47.662;18.324;2023-11-21T02:36:21;99787.72;;;5.08;100.00
73952;BME280;62304;47.662;18.324;2023-11-21T02:39:24;99787.91;;;5.27;100.00
73952;BME280;62304;47.662;18.324;2023-11-21T02:42:27;99781.88;;;5.10;100.00
73952;BME280;62304;47.662;18.324;2023-11-21T02:45:31;99769.75;;;5.11;100.00
73952;BME280;62304;47.662;18.324;2023-11-21T02:48:34;99779.66;;;5.27;100.00
73952;BME280;62304;47.662;18.324;2023-11-21T02:51:37;99769.22;;;5.33;100.00
73952;BME280;62304;47.662;18.324;2023-11-21T02:54:43;99771.19;;;5.32;100.00
73952;BME280;62304;47.662;18.324;2023-11-21T02:57:46;99769.56;;;5.31;100.00
73952;BME280;62304;47.662;18.324;2023-11-21T03:00:48;99756.31;;;5.21;100.00
73952;BME280;62304;47.662;18.324;2023-11-21T03:03:52;99765.44;;;5.25;100.00
73952;BME280;62304;47.662;18.324;2023-11-21T03:06:55;99765.56;;;5.29;100.00
73952;BME280;62304;47.662;18.324;2023-11-21T03:09:58;99766.47;;;5.33;100.00
73952;BME280;62304;47.662;18.324;2023-11-21T03:13:01;99767.09;;;5.14;100.00
73952;BME280;62304;47.662;18.324;2023-11-21T03:16:04;99763.38;;;4.95;100.00
73952;BME280;62304;47.662;18.324;2023-11-21T03:19:07;99764.84;;;5.04;100.00
73952;BME280;62304;47.662;18.324;2023-11-21T03:22:13;99762.53;;;5.06;100.00
73952;BME280;62304;47.662;18.324;2023-11-21T03:25:16;99762.31;;;5.11;100.00
73952;BME280;62304;47.662;18.324;2023-11-21T03:28:20;99760.09;;;5.17;100.00
73952;BME280;62304;47.662;18.324;2023-11-21T03:31:23;99750.81;;;5.21;100.00
73952;BME280;62304;47.662;18.324;2023-11-21T03:34:28;99753.09;;;5.19;100.00
73952;BME280;62304;47.662;18.324;2023-11-21T03:37:31;99740.50;;;5.18;100.00
73952;BME280;62304;47.662;18.324;2023-11-21T03:40:36;99742.09;;;5.19;100.00
73952;BME280;62304;47.662;18.324;2023-11-21T03:43:39;99728.03;;;5.21;100.00
73952;BME280;62304;47.662;18.324;2023-11-21T03:46:42;99727.00;;;5.13;100.00
73952;BME280;62304;47.662;18.324;2023-11-21T03:49:46;99721.13;;;4.99;100.00
73952;BME280;62304;47.662;18.324;2023-11-21T03:52:50;99741.25;;;5.03;100.00
73952;BME280;62304;47.662;18.324;2023-11-21T03:55:53;99746.56;;;4.84;100.00
73952;BME280;62304;47.662;18.324;2023-11-21T03:58:56;99748.53;;;4.72;100.00
73952;BME280;62304;47.662;18.324;2023-11-21T04:02:00;99765.13;;;4.87;100.00
73952;BME280;62304;47.662;18.324;2023-11-21T04:05:04;99771.53;;;4.79;100.00
73952;BME280;62304;47.662;18.324;2023-11-21T04:08:07;99768.53;;;4.96;100.00
73952;BME280;62304;47.662;18.324;2023-11-21T04:11:11;99758.81;;;4.87;100.00
73952;BME280;62304;47.662;18.324;2023-11-21T04:14:18;99774.34;;;4.95;100.00
73952;BME280;62304;47.662;18.324;2023-11-21T04:17:21;99769.28;;;5.09;100.00
73952;BME280;62304;47.662;18.324;2023-11-21T04:20:24;99785.34;;;5.07;100.00
73952;BME280;62304;47.662;18.324;2023-11-21T04:23:29;99769.47;;;4.88;100.00
73952;BME280;62304;47.662;18.324;2023-11-21T04:26:34;99779.97;;;4.98;100.00
73952;BME280;62304;47.662;18.324;2023-11-21T04:29:37;99791.91;;;4.78;100.00
73952;BME280;62304;47.662;18.324;2023-11-21T04:32:40;99778.88;;;4.63;100.00
73952;BME280;62304;47.662;18.324;2023-11-21T04:35:43;99792.38;;;4.56;100.00
73952;BME280;62304;47.662;18.324;2023-11-21T04:38:46;99784.72;;;4.74;100.00
73952;BME280;62304;47.662;18.324;2023-11-21T04:41:50;99777.72;;;4.76;100.00
73952;BME280;62304;47.662;18.324;2023-11-21T04:44:53;99778.34;;;4.97;100.00
73952;BME280;62304;47.662;18.324;2023-11-21T04:47:56;99769.19;;;5.05;100.00
73952;BME280;62304;47.662;18.324;2023-11-21T04:50:59;99760.25;;;5.08;100.00
73952;BME280;62304;47.662;18.324;2023-11-21T04:54:02;99758.69;;;5.23;100.00
73952;BME280;62304;47.662;18.324;2023-11-21T04:57:05;99773.69;;;5.25;100.00
73952;BME280;62304;47.662;18.324;2023-11-21T05:00:11;99778.31;;;5.21;100.00
73952;BME280;62304;47.662;18.324;2023-11-21T05:03:15;99756.53;;;5.28;100.00
73952;BME280;62304;47.662;18.324;2023-11-21T05:06:19;99759.25;;;5.28;100.00
73952;BME280;62304;47.662;18.324;2023-11-21T05:09:24;99778.06;;;5.26;100.00
73952;BME280;62304;47.662;18.324;2023-11-21T05:12:31;99786.47;;;5.18;100.00
73952;BME280;62304;47.662;18.324;2023-11-21T05:15:40;99788.53;;;5.48;100.00
73952;BME280;62304;47.662;18.324;2023-11-21T05:18:48;99790.13;;;5.49;100.00
73952;BME280;62304;47.662;18.324;2023-11-21T05:21:53;99794.13;;;5.52;100.00
73952;BME280;62304;47.662;18.324;2023-11-21T05:24:56;99796.78;;;5.48;100.00
73952;BME280;62304;47.662;18.324;2023-11-21T05:27:59;99786.38;;;5.42;100.00
73952;BME280;62304;47.662;18.324;2023-11-21T05:31:05;99795.87;;;5.44;100.00
73952;BME280;62304;47.662;18.324;2023-11-21T05:34:17;99801.13;;;5.49;100.00
73952;BME280;62304;47.662;18.324;2023-11-21T05:37:21;99809.31;;;5.61;100.00
73952;BME280;62304;47.662;18.324;2023-11-21T05:40:32;99817.22;;;5.63;100.00
73952;BME280;62304;47.662;18.324;2023-11-21T05:43:46;99828.75;;;5.80;100.00
73952;BME280;62304;47.662;18.324;2023-11-21T05:46:53;99829.16;;;5.55;100.00
73952;BME280;62304;47.662;18.324;2023-11-21T05:49:58;99826.66;;;5.50;100.00
73952;BME280;62304;47.662;18.324;2023-11-21T05:53:02;99839.53;;;5.46;100.00
73952;BME280;62304;47.662;18.324;2023-11-21T05:56:06;99847.03;;;5.61;100.00
73952;BME280;62304;47.662;18.324;2023-11-21T05:59:09;99855.34;;;5.76;100.00
73952;BME280;62304;47.662;18.324;2023-11-21T06:02:14;99872.25;;;5.63;100.00
73952;BME280;62304;47.662;18.324;2023-11-21T06:05:28;99875.53;;;5.80;100.00
73952;BME280;62304;47.662;18.324;2023-11-21T06:08:32;99880.94;;;5.65;100.00
73952;BME280;62304;47.662;18.324;2023-11-21T06:11:42;99895.56;;;5.53;100.00
73952;BME280;62304;47.662;18.324;2023-11-21T06:14:49;99889.69;;;5.55;100.00
73952;BME280;62304;47.662;18.324;2023-11-21T06:18:00;99893.94;;;5.52;100.00
73952;BME280;62304;47.662;18.324;2023-11-21T06:21:03;99895.69;;;5.33;100.00
73952;BME280;62304;47.662;18.324;2023-11-21T06:24:06;99899.28;;;5.21;100.00
73952;BME280;62304;47.662;18.324;2023-11-21T06:27:10;99902.81;;;5.10;100.00
73952;BME280;62304;47.662;18.324;2023-11-21T06:30:17;99897.81;;;5.12;100.00
73952;BME280;62304;47.662;18.324;2023-11-21T06:33:48;99899.47;;;5.28;100.00
73952;BME280;62304;47.662;18.324;2023-11-21T06:36:53;99908.06;;;5.27;100.00
73952;BME280;62304;47.662;18.324;2023-11-21T06:39:58;99902.22;;;5.28;100.00
73952;BME280;62304;47.662;18.324;2023-11-21T06:43:02;99895.25;;;5.19;100.00
73952;BME280;62304;47.662;18.324;2023-11-21T06:46:05;99908.87;;;5.39;100.00
73952;BME280;62304;47.662;18.324;2023-11-21T06:49:08;99920.41;;;5.45;100.00
73952;BME280;62304;47.662;18.324;2023-11-21T06:52:12;99929.91;;;5.47;100.00
73952;BME280;62304;47.662;18.324;2023-11-21T06:55:15;99920.97;;;5.50;100.00
73952;BME280;62304;47.662;18.324;2023-11-21T06:58:19;99928.41;;;5.50;100.00
73952;BME280;62304;47.662;18.324;2023-11-21T07:01:22;99928.09;;;5.51;100.00
73952;BME280;62304;47.662;18.324;2023-11-21T07:04:27;99932.44;;;5.52;100.00
73952;BME280;62304;47.662;18.324;2023-11-21T07:07:32;99934.16;;;5.57;100.00
73952;BME280;62304;47.662;18.324;2023-11-21T07:10:38;99924.84;;;5.61;100.00
73952;BME280;62304;47.662;18.324;2023-11-21T07:13:43;99936.19;;;5.60;100.00
73952;BME280;62304;47.662;18.324;2023-11-21T07:16:46;99938.84;;;5.56;100.00
73952;BME280;62304;47.662;18.324;2023-11-21T07:19:51;99941.81;;;5.63;100.00
73952;BME280;62304;47.662;18.324;2023-11-21T07:22:55;99936.97;;;5.72;100.00
73952;BME280;62304;47.662;18.324;2023-11-21T07:25:59;99933.66;;;5.79;100.00
73952;BME280;62304;47.662;18.324;2023-11-21T07:29:03;99936.53;;;5.82;100.00
73952;BME280;62304;47.662;18.324;2023-11-21T07:32:07;99928.12;;;5.91;100.00
73952;BME280;62304;47.662;18.324;2023-11-21T07:35:12;99927.16;;;5.99;100.00
73952;BME280;62304;47.662;18.324;2023-11-21T07:38:16;99928.28;;;6.10;100.00
73952;BME280;62304;47.662;18.324;2023-11-21T07:41:19;99923.34;;;6.15;100.00
73952;BME280;62304;47.662;18.324;2023-11-21T07:44:33;99924.94;;;6.16;100.00
73952;BME280;62304;47.662;18.324;2023-11-21T07:47:36;99912.75;;;6.17;100.00
73952;BME280;62304;47.662;18.324;2023-11-21T07:50:40;99913.41;;;6.26;100.00
73952;BME280;62304;47.662;18.324;2023-11-21T07:53:43;99914.09;;;6.23;100.00
73952;BME280;62304;47.662;18.324;2023-11-21T07:56:46;99916.34;;;6.33;100.00
73952;BME280;62304;47.662;18.324;2023-11-21T07:59:50;99896.63;;;6.31;100.00
73952;BME280;62304;47.662;18.324;2023-11-21T08:02:53;99905.91;;;6.39;100.00
73952;BME280;62304;47.662;18.324;2023-11-21T08:06:00;99907.25;;;6.45;100.00
73952;BME280;62304;47.662;18.324;2023-11-21T08:09:06;99904.75;;;6.55;100.00
73952;BME280;62304;47.662;18.324;2023-11-21T08:12:11;99910.19;;;6.67;100.00
73952;BME280;62304;47.662;18.324;2023-11-21T08:15:14;99905.12;;;6.69;100.00
73952;BME280;62304;47.662;18.324;2023-11-21T08:18:20;99911.88;;;6.72;100.00
73952;BME280;62304;47.662;18.324;2023-11-21T08:21:23;99911.97;;;6.75;100.00
73952;BME280;62304;47.662;18.324;2023-11-21T08:24:28;99914.00;;;6.78;100.00
73952;BME280;62304;47.662;18.324;2023-11-21T08:27:30;99914.47;;;6.80;100.00
73952;BME280;62304;47.662;18.324;2023-11-21T08:30:34;99914.19;;;6.85;100.00
73952;BME280;62304;47.662;18.324;2023-11-21T08:33:37;99907.53;;;6.86;100.00
73952;BME280;62304;47.662;18.324;2023-11-21T08:36:42;99903.34;;;6.92;100.00
73952;BME280;62304;47.662;18.324;2023-11-21T08:39:47;99917.66;;;6.98;100.00
73952;BME280;62304;47.662;18.324;2023-11-21T08:42:57;99912.69;;;7.03;100.00
73952;BME280;62304;47.662;18.324;2023-11-21T08:46:03;99915.13;;;7.24;100.00
73952;BME280;62304;47.662;18.324;2023-11-21T08:49:07;99918.88;;;7.31;100.00
73952;BME280;62304;47.662;18.324;2023-11-21T08:52:10;99913.06;;;7.36;100.00
73952;BME280;62304;47.662;18.324;2023-11-21T08:55:14;99904.59;;;7.45;100.00
73952;BME280;62304;47.662;18.324;2023-11-21T08:58:17;99911.06;;;7.52;100.00
73952;BME280;62304;47.662;18.324;2023-11-21T09:01:20;99906.22;;;7.65;100.00
73952;BME280;62304;47.662;18.324;2023-11-21T09:04:23;99906.47;;;7.75;100.00
73952;BME280;62304;47.662;18.324;2023-11-21T09:07:27;99907.84;;;7.85;100.00
73952;BME280;62304;47.662;18.324;2023-11-21T09:10:29;99910.31;;;7.90;100.00
73952;BME280;62304;47.662;18.324;2023-11-21T09:13:33;99911.19;;;7.94;100.00
73952;BME280;62304;47.662;18.324;2023-11-21T09:16:41;99909.16;;;7.91;100.00
73952;BME280;62304;47.662;18.324;2023-11-21T09:19:46;99896.94;;;7.92;100.00
73952;BME280;62304;47.662;18.324;2023-11-21T09:22:52;99904.22;;;8.00;99.55
73952;BME280;62304;47.662;18.324;2023-11-21T09:25:57;99914.75;;;8.13;99.45
73952;BME280;62304;47.662;18.324;2023-11-21T09:29:03;99918.25;;;8.29;99.61
73952;BME280;62304;47.662;18.324;2023-11-21T09:32:07;99908.16;;;8.37;99.03
73952;BME280;62304;47.662;18.324;2023-11-21T09:35:11;99906.38;;;8.48;98.82
73952;BME280;62304;47.662;18.324;2023-11-21T09:38:17;99908.03;;;8.52;98.34
73952;BME280;62304;47.662;18.324;2023-11-21T09:41:34;99904.22;;;8.60;97.89
73952;BME280;62304;47.662;18.324;2023-11-21T09:44:48;99895.94;;;8.60;97.71
73952;BME280;62304;47.662;18.324;2023-11-21T09:47:55;99894.22;;;8.52;97.63
73952;BME280;62304;47.662;18.324;2023-11-21T09:50:59;99887.03;;;8.48;97.03
73952;BME280;62304;47.662;18.324;2023-11-21T09:54:06;99874.44;;;8.50;95.79
73952;BME280;62304;47.662;18.324;2023-11-21T09:57:11;99880.28;;;8.68;96.30
73952;BME280;62304;47.662;18.324;2023-11-21T10:00:16;99875.72;;;8.79;94.95
73952;BME280;62304;47.662;18.324;2023-11-21T10:03:20;99855.38;;;8.90;94.55
73952;BME280;62304;47.662;18.324;2023-11-21T10:06:25;99875.81;;;9.08;94.47
73952;BME280;62304;47.662;18.324;2023-11-21T10:09:29;99871.19;;;9.16;93.65
73952;BME280;62304;47.662;18.324;2023-11-21T10:12:34;99876.22;;;9.10;91.22
73952;BME280;62304;47.662;18.324;2023-11-21T10:15:38;99873.19;;;9.19;91.92
73952;BME280;62304;47.662;18.324;2023-11-21T10:18:49;99853.31;;;9.10;91.85
73952;BME280;62304;47.662;18.324;2023-11-21T10:21:55;99865.16;;;9.10;89.66
73952;BME280;62304;47.662;18.324;2023-11-21T10:25:02;99858.50;;;9.11;89.79
73952;BME280;62304;47.662;18.324;2023-11-21T10:28:05;99862.41;;;9.10;89.53
73952;BME280;62304;47.662;18.324;2023-11-21T10:31:11;99855.50;;;9.23;88.29
73952;BME280;62304;47.662;18.324;2023-11-21T10:34:19;99859.31;;;9.41;87.09
73952;BME280;62304;47.662;18.324;2023-11-21T10:37:22;99857.88;;;9.51;88.73
73952;BME280;62304;47.662;18.324;2023-11-21T10:40:28;99849.03;;;9.71;86.21
73952;BME280;62304;47.662;18.324;2023-11-21T10:43:31;99855.25;;;9.91;85.94
73952;BME280;62304;47.662;18.324;2023-11-21T10:46:39;99859.72;;;10.02;86.07
73952;BME280;62304;47.662;18.324;2023-11-21T10:49:43;99860.09;;;10.01;85.42
73952;BME280;62304;47.662;18.324;2023-11-21T10:52:46;99859.81;;;10.09;85.09
73952;BME280;62304;47.662;18.324;2023-11-21T10:55:50;99871.03;;;10.20;86.06
73952;BME280;62304;47.662;18.324;2023-11-21T10:59:05;99862.06;;;10.30;83.53
73952;BME280;62304;47.662;18.324;2023-11-21T11:05:40;99855.19;;;10.57;84.19
73952;BME280;62304;47.662;18.324;2023-11-21T11:08:49;99842.19;;;10.68;84.33
73952;BME280;62304;47.662;18.324;2023-11-21T11:11:53;99855.78;;;10.76;84.14
73952;BME280;62304;47.662;18.324;2023-11-21T11:14:57;99840.66;;;10.70;82.87
73952;BME280;62304;47.662;18.324;2023-11-21T11:18:02;99836.31;;;10.73;82.58
73952;BME280;62304;47.662;18.324;2023-11-21T11:21:16;99840.28;;;10.75;81.03
73952;BME280;62304;47.662;18.324;2023-11-21T11:28:38;99841.25;;;10.93;82.13
73952;BME280;62304;47.662;18.324;2023-11-21T11:35:26;99835.75;;;11.00;80.69
73952;BME280;62304;47.662;18.324;2023-11-21T11:38:34;99828.66;;;11.06;79.43
73952;BME280;62304;47.662;18.324;2023-11-21T11:41:43;99817.91;;;10.98;77.86
73952;BME280;62304;47.662;18.324;2023-11-21T11:44:50;99814.56;;;10.78;79.74
73952;BME280;62304;47.662;18.324;2023-11-21T11:48:02;99828.31;;;10.64;79.17
73952;BME280;62304;47.662;18.324;2023-11-21T11:51:13;99822.72;;;10.57;79.27
73952;BME280;62304;47.662;18.324;2023-11-21T11:54:36;99828.41;;;10.75;81.55
73952;BME280;62304;47.662;18.324;2023-11-21T11:57:41;99823.81;;;10.96;80.50
73952;BME280;62304;47.662;18.324;2023-11-21T12:00:44;99823.56;;;11.15;79.17
73952;BME280;62304;47.662;18.324;2023-11-21T12:07:56;99813.75;;;11.32;78.42
73952;BME280;62304;47.662;18.324;2023-11-21T12:11:01;99812.13;;;11.20;79.26
73952;BME280;62304;47.662;18.324;2023-11-21T12:14:06;99806.97;;;11.22;79.16
73952;BME280;62304;47.662;18.324;2023-11-21T12:17:09;99810.03;;;11.07;79.36
73952;BME280;62304;47.662;18.324;2023-11-21T12:20:13;99806.47;;;11.10;79.12
73952;BME280;62304;47.662;18.324;2023-11-21T12:23:23;99810.41;;;11.05;79.50
73952;BME280;62304;47.662;18.324;2023-11-21T12:26:30;99784.53;;;10.87;79.32
73952;BME280;62304;47.662;18.324;2023-11-21T12:29:33;99808.00;;;11.00;80.04
73952;BME280;62304;47.662;18.324;2023-11-21T12:32:37;99804.75;;;10.91;79.53
73952;BME280;62304;47.662;18.324;2023-11-21T12:35:40;99813.28;;;10.65;79.81
73952;BME280;62304;47.662;18.324;2023-11-21T12:38:45;99811.22;;;10.55;80.05
73952;BME280;62304;47.662;18.324;2023-11-21T12:41:49;99807.78;;;10.29;80.66
73952;BME280;62304;47.662;18.324;2023-11-21T12:48:11;99802.41;;;10.46;81.94
73952;BME280;62304;47.662;18.324;2023-11-21T12:51:15;99802.91;;;10.55;81.43
73952;BME280;62304;47.662;18.324;2023-11-21T12:54:21;99804.34;;;10.42;82.03
73952;BME280;62304;47.662;18.324;2023-11-21T12:57:28;99806.38;;;10.45;81.35
73952;BME280;62304;47.662;18.324;2023-11-21T13:00:33;99811.28;;;10.62;81.18
73952;BME280;62304;47.662;18.324;2023-11-21T13:03:39;99798.62;;;10.65;80.84
73952;BME280;62304;47.662;18.324;2023-11-21T13:06:43;99797.03;;;10.64;81.31
73952;BME280;62304;47.662;18.324;2023-11-21T13:09:47;99801.41;;;10.68;80.52
73952;BME280;62304;47.662;18.324;2023-11-21T13:12:51;99807.78;;;10.72;80.63
73952;BME280;62304;47.662;18.324;2023-11-21T13:15:56;99807.09;;;10.82;80.86
73952;BME280;62304;47.662;18.324;2023-11-21T13:19:00;99810.25;;;10.81;79.29
73952;BME280;62304;47.662;18.324;2023-11-21T13:22:04;99809.53;;;10.94;79.98
73952;BME280;62304;47.662;18.324;2023-11-21T13:25:08;99813.09;;;10.91;80.40
73952;BME280;62304;47.662;18.324;2023-11-21T13:28:12;99813.38;;;10.76;80.98
73952;BME280;62304;47.662;18.324;2023-11-21T13:31:19;99804.16;;;10.65;80.71
73952;BME280;62304;47.662;18.324;2023-11-21T13:34:30;99803.16;;;10.90;80.79
73952;BME280;62304;47.662;18.324;2023-11-21T13:37:36;99805.88;;;10.80;80.80
73952;BME280;62304;47.662;18.324;2023-11-21T13:40:41;99809.25;;;10.59;81.61
73952;BME280;62304;47.662;18.324;2023-11-21T13:43:49;99803.44;;;10.71;81.50
73952;BME280;62304;47.662;18.324;2023-11-21T13:47:04;99813.22;;;10.58;82.32
73952;BME280;62304;47.662;18.324;2023-11-21T13:50:08;99804.22;;;10.28;82.67
73952;BME280;62304;47.662;18.324;2023-11-21T13:53:19;99803.78;;;10.26;83.24
73952;BME280;62304;47.662;18.324;2023-11-21T13:56:25;99809.63;;;10.18;83.41
73952;BME280;62304;47.662;18.324;2023-11-21T13:59:30;99807.72;;;10.22;83.24
73952;BME280;62304;47.662;18.324;2023-11-21T14:02:35;99814.38;;;10.14;84.06
73952;BME280;62304;47.662;18.324;2023-11-21T14:05:44;99808.31;;;10.05;84.35
73952;BME280;62304;47.662;18.324;2023-11-21T14:08:51;99813.81;;;10.01;84.95
73952;BME280;62304;47.662;18.324;2023-11-21T14:11:56;99808.25;;;10.01;84.90
73952;BME280;62304;47.662;18.324;2023-11-21T14:15:00;99811.37;;;9.96;84.99
73952;BME280;62304;47.662;18.324;2023-11-21T14:18:04;99818.06;;;9.92;85.27
73952;BME280;62304;47.662;18.324;2023-11-21T14:21:13;99815.63;;;9.87;85.55
73952;BME280;62304;47.662;18.324;2023-11-21T14:24:17;99809.22;;;9.83;85.98
73952;BME280;62304;47.662;18.324;2023-11-21T14:27:20;99802.84;;;9.79;85.97
73952;BME280;62304;47.662;18.324;2023-11-21T14:30:24;99809.13;;;9.72;86.58
73952;BME280;62304;47.662;18.324;2023-11-21T14:33:28;99811.41;;;9.67;86.76
73952;BME280;62304;47.662;18.324;2023-11-21T14:36:33;99818.41;;;9.57;87.23
73952;BME280;62304;47.662;18.324;2023-11-21T14:39:36;99830.56;;;9.49;87.89
73952;BME280;62304;47.662;18.324;2023-11-21T14:42:43;99832.78;;;9.37;88.93
73952;BME280;62304;47.662;18.324;2023-11-21T14:45:50;99833.00;;;9.25;89.27
73952;BME280;62304;47.662;18.324;2023-11-21T14:48:54;99826.88;;;9.12;90.21
73952;BME280;62304;47.662;18.324;2023-11-21T14:52:15;99829.16;;;9.07;90.50
73952;BME280;62304;47.662;18.324;2023-11-21T14:55:39;99826.88;;;8.86;91.32
73952;BME280;62304;47.662;18.324;2023-11-21T14:58:54;99838.56;;;8.76;91.86
73952;BME280;62304;47.662;18.324;2023-11-21T15:02:00;99836.28;;;8.59;92.63
73952;BME280;62304;47.662;18.324;2023-11-21T15:05:17;99834.84;;;8.43;93.55
73952;BME280;62304;47.662;18.324;2023-11-21T15:08:23;99839.06;;;8.18;94.93
73952;BME280;62304;47.662;18.324;2023-11-21T15:11:35;99835.72;;;8.09;95.57
73952;BME280;62304;47.662;18.324;2023-11-21T15:14:50;99836.13;;;7.88;96.51
73952;BME280;62304;47.662;18.324;2023-11-21T15:17:58;99838.22;;;7.76;96.30
73952;BME280;62304;47.662;18.324;2023-11-21T15:21:04;99839.91;;;7.61;97.45
73952;BME280;62304;47.662;18.324;2023-11-21T15:24:08;99850.81;;;7.54;97.00
73952;BME280;62304;47.662;18.324;2023-11-21T15:27:17;99861.09;;;7.38;97.99
73952;BME280;62304;47.662;18.324;2023-11-21T15:30:22;99865.63;;;7.46;97.75
73952;BME280;62304;47.662;18.324;2023-11-21T15:33:43;99872.00;;;7.16;100.00
73952;BME280;62304;47.662;18.324;2023-11-21T15:36:50;99879.47;;;7.15;99.79
73952;BME280;62304;47.662;18.324;2023-11-21T15:39:59;99875.91;;;7.30;98.61
73952;BME280;62304;47.662;18.324;2023-11-21T15:43:02;99871.31;;;7.03;99.76
73952;BME280;62304;47.662;18.324;2023-11-21T15:46:09;99875.78;;;6.92;100.00
73952;BME280;62304;47.662;18.324;2023-11-21T15:49:12;99870.19;;;6.89;100.00
73952;BME280;62304;47.662;18.324;2023-11-21T15:52:16;99866.69;;;6.92;99.52
73952;BME280;62304;47.662;18.324;2023-11-21T15:55:21;99878.44;;;6.89;99.47
73952;BME280;62304;47.662;18.324;2023-11-21T15:58:24;99880.56;;;6.95;98.53
73952;BME280;62304;47.662;18.324;2023-11-21T16:01:30;99888.31;;;6.90;98.38
73952;BME280;62304;47.662;18.324;2023-11-21T16:04:34;99884.31;;;6.87;98.08
73952;BME280;62304;47.662;18.324;2023-11-21T16:07:40;99888.00;;;6.33;100.00
73952;BME280;62304;47.662;18.324;2023-11-21T16:10:43;99884.22;;;6.37;100.00
73952;BME280;62304;47.662;18.324;2023-11-21T16:13:47;99879.56;;;6.26;100.00
73952;BME280;62304;47.662;18.324;2023-11-21T16:16:55;99875.94;;;6.37;99.43
73952;BME280;62304;47.662;18.324;2023-11-21T16:19:59;99876.94;;;6.45;99.32
73952;BME280;62304;47.662;18.324;2023-11-21T16:23:03;99878.34;;;6.39;98.95
73952;BME280;62304;47.662;18.324;2023-11-21T16:26:06;99881.53;;;6.25;99.85
73952;BME280;62304;47.662;18.324;2023-11-21T16:29:09;99892.88;;;6.24;99.55